Time;durP1;ratioP1;P1;durP2;ratioP2;P2;SDS_P1;SDS_P2;PMS_P1;PMS_P2;Temp;Humidity;BMP_temperature;BMP_pressure;BME280_temperature;BME280_humidity;BME280_pressure;Samples;Min_cycle;Max_cycle;Signal;HPM_P1;HPM_P2
2022/06/12 00:01:21;;;;;;;;;;;;;;;14.99;66.64;102233.13;5041862;28;19982;-61
2022/06/12 00:03:47;;;;;;;;;;;;;;;14.98;66.74;102231.44;5058458;28;19998;-62
2022/06/12 00:06:14;;;;;;;;;;;;;;;14.97;66.88;102233.28;5059537;28;19924;-62
2022/06/12 00:08:40;;;;;;;;;;;;;;;14.97;66.50;102227.09;5062972;28;19934;-63
2022/06/12 00:11:06;;;;;;;;;;;;;;;14.97;66.92;102232.44;5057799;28;20330;-62
2022/06/12 00:13:37;;;;;;;;;;;;;;;14.96;67.17;102236.13;5061254;28;20031;-63
2022/06/12 00:16:03;;;;;;;;;;;;;;;14.96;66.93;102222.75;5061688;28;19925;-62
2022/06/12 00:18:29;;;;;;;;;;;;;;;14.92;67.33;102230.25;5052770;28;20439;-62
2022/06/12 00:21:12;;;;;;;;;;;;;;;14.90;67.26;102222.38;5060514;28;19981;-62
2022/06/12 00:23:43;;;;;;;;;;;;;;;14.89;67.15;102220.72;5051315;28;19988;-62
2022/06/12 00:26:09;;;;;;;;;;;;;;;14.89;67.27;102226.06;5056735;28;19925;-62
2022/06/12 00:28:35;;;;;;;;;;;;;;;14.86;67.77;102218.34;5063409;28;19936;-61
2022/06/12 00:31:00;;;;;;;;;;;;;;;14.87;67.45;102221.88;5061854;28;19934;-62
2022/06/12 00:33:25;;;;;;;;;;;;;;;14.86;67.75;102226.34;5059093;28;19928;-62
2022/06/12 00:35:50;;;;;;;;;;;;;;;14.84;67.22;102225.69;5054256;28;20571;-62
2022/06/12 00:38:16;;;;;;;;;;;;;;;14.82;67.56;102219.66;5043967;28;19931;-61
2022/06/12 00:40:41;;;;;;;;;;;;;;;14.79;67.52;102218.16;5062240;28;19924;-62
2022/06/12 00:43:06;;;;;;;;;;;;;;;14.79;67.61;102225.31;5062067;28;19924;-61
2022/06/12 00:45:50;;;;;;;;;;;;;;;14.77;67.65;102227.31;5031059;28;20546;-62
2022/06/12 00:48:18;;;;;;;;;;;;;;;14.75;68.16;102219.44;5053010;28;20651;-62
2022/06/12 00:50:47;;;;;;;;;;;;;;;14.72;68.12;102218.88;5053357;28;19936;-63
2022/06/12 00:53:15;;;;;;;;;;;;;;;14.66;68.23;102223.84;5052342;28;19931;-62
2022/06/12 00:56:09;;;;;;;;;;;;;;;14.64;68.29;102228.50;5061654;28;20821;-61
2022/06/12 00:58:40;;;;;;;;;;;;;;;14.60;68.65;102231.66;5037941;28;19925;-62
2022/06/12 01:01:09;;;;;;;;;;;;;;;14.57;68.42;102226.59;5042302;28;20027;-61
2022/06/12 01:06:33;;;;;;;;;;;;;;;14.54;68.27;102227.75;5044174;28;19928;-61
2022/06/12 01:06:35;;;;;;;;;;;;;;;14.47;68.41;102226.69;5058456;28;19950;-62
2022/06/12 01:09:02;;;;;;;;;;;;;;;14.43;68.78;102214.63;5060096;28;20362;-62
2022/06/12 01:11:27;;;;;;;;;;;;;;;14.41;68.41;102217.44;5058523;28;19930;-62
2022/06/12 01:13:53;;;;;;;;;;;;;;;14.42;68.88;102223.63;5061189;28;19978;-63
2022/06/12 01:16:20;;;;;;;;;;;;;;;14.39;68.51;102220.28;5039410;28;20355;-61
2022/06/12 01:18:48;;;;;;;;;;;;;;;14.36;68.62;102222.44;5057497;28;19946;-61
2022/06/12 01:21:33;;;;;;;;;;;;;;;14.31;68.96;102228.22;5061338;28;19971;-62
2022/06/12 01:24:13;;;;;;;;;;;;;;;14.25;68.88;102223.47;5060117;28;19924;-62
2022/06/12 01:26:39;;;;;;;;;;;;;;;14.21;69.44;102227.47;5050056;28;19928;-62
2022/06/12 01:29:13;;;;;;;;;;;;;;;14.11;69.64;102223.03;5056295;28;19927;-62
2022/06/12 01:31:38;;;;;;;;;;;;;;;14.06;69.70;102219.97;5058881;28;19943;-61
2022/06/12 01:34:13;;;;;;;;;;;;;;;14.01;69.46;102216.91;5047808;28;20391;-62
2022/06/12 01:36:44;;;;;;;;;;;;;;;13.97;69.71;102220.88;5065412;28;19951;-63
2022/06/12 01:39:36;;;;;;;;;;;;;;;13.97;69.57;102215.53;5062925;28;20043;-61
2022/06/12 01:42:10;;;;;;;;;;;;;;;13.96;69.75;102214.69;5014398;28;19924;-62
2022/06/12 01:44:55;;;;;;;;;;;;;;;13.95;69.96;102213.03;5059816;28;20518;-62
2022/06/12 01:47:24;;;;;;;;;;;;;;;13.95;69.77;102206.84;5061169;28;20260;-61
2022/06/12 01:49:54;;;;;;;;;;;;;;;13.92;69.57;102212.50;5056413;28;20287;-61
2022/06/12 01:52:38;;;;;;;;;;;;;;;13.87;69.59;102210.28;5062410;28;19924;-62
2022/06/12 01:55:22;;;;;;;;;;;;;;;13.87;69.70;102210.28;5062835;28;20329;-60
2022/06/12 01:57:56;;;;;;;;;;;;;;;13.87;69.67;102204.09;5063201;28;19994;-61
2022/06/12 02:00:23;;;;;;;;;;;;;;;13.87;69.75;102204.09;5060714;28;19931;-63
2022/06/12 02:02:48;;;;;;;;;;;;;;;13.85;69.81;102206.91;5054459;28;19970;-62
2022/06/12 02:05:22;;;;;;;;;;;;;;;13.81;69.61;102205.53;5058089;28;19917;-63
2022/06/12 02:08:08;;;;;;;;;;;;;;;13.77;69.69;102202.31;5063930;28;19935;-62
2022/06/12 02:10:38;;;;;;;;;;;;;;;13.76;69.70;102207.81;5060757;28;19920;-62
2022/06/12 02:13:12;;;;;;;;;;;;;;;13.73;69.80;102208.94;5066016;28;19963;-62
2022/06/12 02:15:43;;;;;;;;;;;;;;;13.71;69.97;102210.91;5064232;28;19932;-62
2022/06/12 02:18:20;;;;;;;;;;;;;;;13.68;69.94;102216.53;5050841;28;19925;-61
2022/06/12 02:20:52;;;;;;;;;;;;;;;13.67;69.98;102220.19;5051865;28;19924;-62
2022/06/12 02:23:24;;;;;;;;;;;;;;;13.67;70.05;102222.88;5062666;28;20355;-61
2022/06/12 02:25:54;;;;;;;;;;;;;;;13.64;70.06;102216.00;5057096;28;19928;-62
2022/06/12 02:28:22;;;;;;;;;;;;;;;13.62;70.04;102217.97;5064295;28;19924;-61
2022/06/12 02:30:50;;;;;;;;;;;;;;;13.58;69.92;102217.41;5061737;28;19936;-62
2022/06/12 02:33:20;;;;;;;;;;;;;;;13.54;70.17;102215.22;5056090;28;19956;-62
2022/06/12 02:35:48;;;;;;;;;;;;;;;13.50;70.18;102212.00;5058202;28;19935;-61
2022/06/12 02:38:16;;;;;;;;;;;;;;;13.45;70.12;102206.22;5054189;28;20163;-61
2022/06/12 02:40:45;;;;;;;;;;;;;;;13.42;70.14;102209.22;5058615;28;19935;-62
2022/06/12 02:43:15;;;;;;;;;;;;;;;13.41;70.15;102210.16;5056409;28;19924;-61
2022/06/12 02:45:44;;;;;;;;;;;;;;;13.38;70.34;102199.81;5058103;28;20031;-62
2022/06/12 02:48:09;;;;;;;;;;;;;;;13.37;70.29;102198.16;5055539;28;19936;-62
2022/06/12 02:50:43;;;;;;;;;;;;;;;13.36;70.23;102201.81;5061580;28;19928;-60
2022/06/12 02:53:12;;;;;;;;;;;;;;;13.36;70.45;102201.81;5055876;28;20811;-61
2022/06/12 02:56:12;;;;;;;;;;;;;;;13.32;70.50;102195.91;5060555;28;20335;-62
2022/06/12 02:58:46;;;;;;;;;;;;;;;13.32;70.68;102191.44;4993277;28;19930;-62
2022/06/12 03:01:13;;;;;;;;;;;;;;;13.34;70.43;102193.09;5043752;28;19932;-61
2022/06/12 03:03:52;;;;;;;;;;;;;;;13.32;70.46;102191.44;5058162;28;19936;-62
2022/06/12 03:06:18;;;;;;;;;;;;;;;13.35;70.52;102192.09;5059417;28;20026;-63
2022/06/12 03:08:47;;;;;;;;;;;;;;;13.35;70.53;102190.28;5056047;28;20415;-61
2022/06/12 03:11:24;;;;;;;;;;;;;;;13.35;70.40;102200.09;5062637;28;19932;-62
2022/06/12 03:13:50;;;;;;;;;;;;;;;13.34;70.33;102198.44;5056212;28;20007;-61
2022/06/12 03:16:20;;;;;;;;;;;;;;;13.34;70.61;102198.44;5061602;28;20029;-61
2022/06/12 03:18:56;;;;;;;;;;;;;;;13.31;70.61;102205.72;5051588;28;19924;-61
2022/06/12 03:21:24;;;;;;;;;;;;;;;13.30;70.73;102197.88;5060188;28;19924;-62
2022/06/12 03:23:52;;;;;;;;;;;;;;;13.29;70.47;102210.38;5057586;28;20169;-62
2022/06/12 03:26:26;;;;;;;;;;;;;;;13.27;70.65;102208.84;5060332;28;19925;-61
2022/06/12 03:29:12;;;;;;;;;;;;;;;13.24;70.64;102209.97;5060350;28;20013;-61
2022/06/12 03:31:56;;;;;;;;;;;;;;;13.25;70.84;102201.00;5055806;28;19925;-61
2022/06/12 03:34:24;;;;;;;;;;;;;;;13.25;70.82;102211.66;5055829;28;19931;-61
2022/06/12 03:36:57;;;;;;;;;;;;;;;13.23;70.76;102205.59;5060914;28;19925;-61
2022/06/12 03:39:31;;;;;;;;;;;;;;;13.22;70.96;102201.28;5061693;28;19966;-61
2022/06/12 03:42:00;;;;;;;;;;;;;;;13.17;71.09;102209.69;5062177;28;20040;-61
2022/06/12 03:44:37;;;;;;;;;;;;;;;13.13;71.08;102208.31;5049768;28;20958;-62
2022/06/12 03:47:15;;;;;;;;;;;;;;;13.11;71.23;102210.28;5052849;28;19986;-61
2022/06/12 03:49:50;;;;;;;;;;;;;;;13.07;71.32;102208.06;5059964;28;19970;-61
2022/06/12 03:52:20;;;;;;;;;;;;;;;13.06;71.62;102212.53;5033209;28;19920;-61
2022/06/12 03:54:56;;;;;;;;;;;;;;;13.04;71.50;102211.84;5060108;28;19946;-63
2022/06/12 04:00:16;;;;;;;;;;;;;;;12.99;71.61;102211.44;5058938;28;19932;-62
2022/06/12 04:02:43;;;;;;;;;;;;;;;13.00;71.68;102219.28;5060110;28;19929;-61
2022/06/12 04:05:09;;;;;;;;;;;;;;;13.00;71.44;102213.97;5062314;28;20267;-61
2022/06/12 04:07:43;;;;;;;;;;;;;;;12.99;71.57;102212.28;5059949;28;19935;-61
2022/06/12 04:10:10;;;;;;;;;;;;;;;12.97;71.73;102213.41;5059403;28;19963;-61
2022/06/12 04:12:35;;;;;;;;;;;;;;;12.96;71.71;102204.56;5057003;28;20875;-61
2022/06/12 04:15:19;;;;;;;;;;;;;;;12.95;71.88;102210.88;5058040;28;19921;-61
2022/06/12 04:17:44;;;;;;;;;;;;;;;12.94;71.99;102206.56;5049696;28;19958;-62
2022/06/12 04:20:21;;;;;;;;;;;;;;;12.92;71.80;102211.16;5050994;28;20345;-62
2022/06/12 04:22:46;;;;;;;;;;;;;;;13.01;71.96;102210.31;5058811;28;19931;-62
2022/06/12 04:25:17;;;;;;;;;;;;;;;12.95;72.12;102213.56;5059573;28;19920;-62
2022/06/12 04:27:44;;;;;;;;;;;;;;;12.90;71.88;102208.66;5057219;28;20085;-63
2022/06/12 04:30:23;;;;;;;;;;;;;;;12.93;72.06;102222.66;5054697;28;19967;-63
2022/06/12 04:32:49;;;;;;;;;;;;;;;12.91;71.76;102221.00;5059460;28;19925;-61
2022/06/12 04:35:14;;;;;;;;;;;;;;;12.92;71.98;102229.78;5054169;28;19932;-62
2022/06/12 04:37:41;;;;;;;;;;;;;;;12.94;72.25;102235.84;5057397;28;19924;-63
2022/06/12 04:40:07;;;;;;;;;;;;;;;12.94;72.39;102224.34;5060512;28;19928;-61
2022/06/12 04:42:33;;;;;;;;;;;;;;;12.90;72.17;102235.28;5058353;28;20014;-61
2022/06/12 04:45:00;;;;;;;;;;;;;;;12.84;72.55;102229.69;5051251;28;20020;-61
2022/06/12 04:47:26;;;;;;;;;;;;;;;12.85;72.15;102231.34;5060792;28;20019;-61
2022/06/12 04:49:54;;;;;;;;;;;;;;;12.93;71.85;102235.97;5062387;28;20019;-62
2022/06/12 04:52:21;;;;;;;;;;;;;;;12.93;72.00;102228.81;5049008;28;19929;-61
2022/06/12 04:54:46;;;;;;;;;;;;;;;12.94;71.95;102235.84;5057912;28;20472;-62
2022/06/12 04:57:12;;;;;;;;;;;;;;;12.98;72.50;102231.88;5059162;28;19925;-62
2022/06/12 04:59:38;;;;;;;;;;;;;;;13.00;72.33;102229.94;5061189;28;19925;-62
2022/06/12 05:02:04;;;;;;;;;;;;;;;13.05;71.81;102232.16;5059366;28;19928;-60
2022/06/12 05:04:29;;;;;;;;;;;;;;;13.10;72.14;102223.72;5056533;28;20023;-61
2022/06/12 05:06:55;;;;;;;;;;;;;;;13.11;71.88;102228.06;5058997;28;20026;-61
2022/06/12 05:09:23;;;;;;;;;;;;;;;13.16;71.82;102223.16;5062297;28;20030;-61
2022/06/12 05:11:48;;;;;;;;;;;;;;;13.19;71.81;102217.56;5058844;28;19934;-61
2022/06/12 05:14:13;;;;;;;;;;;;;;;13.22;71.74;102217.25;5055508;28;19928;-62
2022/06/12 05:16:41;;;;;;;;;;;;;;;13.29;71.63;102222.84;5062750;28;19949;-62
2022/06/12 05:19:09;;;;;;;;;;;;;;;13.35;71.50;102226.75;5061654;28;19928;-61
2022/06/12 05:21:35;;;;;;;;;;;;;;;13.38;71.60;102226.47;5055694;28;19924;-62
2022/06/12 05:24:00;;;;;;;;;;;;;;;13.43;71.54;102224.22;5055219;28;19931;-61
2022/06/12 05:26:26;;;;;;;;;;;;;;;13.46;71.79;102218.59;5060066;28;20302;-61
2022/06/12 05:28:53;;;;;;;;;;;;;;;13.55;71.76;102225.72;5055534;28;20015;-60
2022/06/12 05:31:18;;;;;;;;;;;;;;;13.65;71.56;102227.50;5059690;28;19936;-60
2022/06/12 05:33:44;;;;;;;;;;;;;;;13.61;72.05;102212.81;5048815;28;19928;-61
2022/06/12 05:36:10;;;;;;;;;;;;;;;13.68;71.72;102227.22;5041705;28;19936;-61
2022/06/12 05:38:36;;;;;;;;;;;;;;;13.73;71.77;102219.63;5061022;28;19940;-62
2022/06/12 05:41:01;;;;;;;;;;;;;;;13.78;71.42;102222.69;5067484;28;20389;-62
2022/06/12 05:43:26;;;;;;;;;;;;;;;13.85;71.61;102223.75;5066591;28;20293;-61
2022/06/12 05:45:51;;;;;;;;;;;;;;;13.95;71.65;102228.16;5062311;28;20292;-62
2022/06/12 05:48:19;;;;;;;;;;;;;;;14.05;71.44;102228.97;5062814;28;19930;-61
2022/06/12 05:50:54;;;;;;;;;;;;;;;14.10;71.56;102232.00;5057567;28;19928;-62
2022/06/12 05:53:20;;;;;;;;;;;;;;;14.17;71.23;102231.41;5055866;28;20023;-63
2022/06/12 05:55:46;;;;;;;;;;;;;;;14.25;71.29;102228.81;5060779;28;20031;-61
2022/06/12 05:58:12;;;;;;;;;;;;;;;14.34;71.35;102230.59;5066622;28;19939;-61
2022/06/12 06:00:37;;;;;;;;;;;;;;;14.39;71.30;102233.63;5061034;28;19990;-60
2022/06/12 06:03:02;;;;;;;;;;;;;;;14.49;71.30;102238.03;5067783;28;20467;-61
2022/06/12 06:05:28;;;;;;;;;;;;;;;14.57;71.32;102238.13;5051891;28;19940;-61
2022/06/12 06:07:53;;;;;;;;;;;;;;;14.64;71.34;102228.50;5061399;28;19970;-61
2022/06/12 06:10:21;;;;;;;;;;;;;;;14.72;71.61;102241.09;5064780;28;19928;-61
2022/06/12 06:12:46;;;;;;;;;;;;;;;14.82;71.55;102241.03;5055727;28;20086;-61
2022/06/12 06:15:12;;;;;;;;;;;;;;;14.92;71.43;102244.41;5063642;28;20035;-61
2022/06/12 06:17:38;;;;;;;;;;;;;;;15.05;71.87;102251.22;5064933;28;20007;-60
2022/06/12 06:20:04;;;;;;;;;;;;;;;15.15;71.37;102253.78;5069692;28;20011;-61
2022/06/12 06:22:29;;;;;;;;;;;;;;;15.19;71.03;102249.78;5069371;28;19924;-60
2022/06/12 06:24:54;;;;;;;;;;;;;;;15.27;71.39;102249.00;5069406;28;19966;-59
2022/06/12 06:27:19;;;;;;;;;;;;;;;15.46;71.70;102242.59;5064027;28;20031;-59
2022/06/12 06:29:45;;;;;;;;;;;;;;;15.39;71.51;102246.91;5072711;28;19929;-61
2022/06/12 06:32:11;;;;;;;;;;;;;;;15.46;71.44;102246.09;5073456;28;19924;-61
2022/06/12 06:34:37;;;;;;;;;;;;;;;15.61;71.82;102248.16;5064722;28;19924;-60
2022/06/12 06:37:03;;;;;;;;;;;;;;;15.79;72.18;102247.25;5073584;28;20363;-61
2022/06/12 06:39:28;;;;;;;;;;;;;;;15.79;71.79;102249.91;5070297;28;19924;-61
2022/06/12 06:41:53;;;;;;;;;;;;;;;15.79;71.78;102249.91;5060314;28;19936;-60
2022/06/12 06:47:03;;;;;;;;;;;;;;;15.90;72.57;102260.31;5069999;28;19943;-60
2022/06/12 06:49:28;;;;;;;;;;;;;;;15.90;72.80;102259.47;5065536;28;20366;-59
2022/06/12 06:51:54;;;;;;;;;;;;;;;15.92;72.02;102258.34;5070251;28;19931;-60
2022/06/12 06:54:19;;;;;;;;;;;;;;;15.89;72.70;102263.97;5069327;28;19946;-60
2022/06/12 06:56:46;;;;;;;;;;;;;;;15.83;72.60;102264.63;5068924;28;19946;-60
2022/06/12 06:59:11;;;;;;;;;;;;;;;15.97;72.58;102266.72;5068634;28;19924;-60
2022/06/12 07:01:36;;;;;;;;;;;;;;;16.11;72.74;102256.38;5064315;28;19982;-60
2022/06/12 07:04:02;;;;;;;;;;;;;;;16.30;72.37;102257.09;5062144;28;19924;-60
2022/06/12 07:06:28;;;;;;;;;;;;;;;16.37;72.46;102255.41;5065314;28;20266;-60
2022/06/12 07:08:55;;;;;;;;;;;;;;;16.44;72.06;102260.97;5064624;28;19931;-60
2022/06/12 07:11:20;;;;;;;;;;;;;;;16.46;72.36;102257.13;5070609;28;19970;-61
2022/06/12 07:13:46;;;;;;;;;;;;;;;16.51;72.05;102262.81;5063807;28;19928;-59
2022/06/12 07:16:12;;;;;;;;;;;;;;;16.58;71.59;102265.66;5064652;28;20397;-61
2022/06/12 07:18:37;;;;;;;;;;;;;;;16.67;71.75;102261.97;5057671;28;19924;-61
2022/06/12 07:21:03;;;;;;;;;;;;;;;16.69;71.20;102269.84;5060250;28;19924;-61
2022/06/12 07:23:28;;;;;;;;;;;;;;;16.70;71.47;102263.50;5061226;28;20402;-63
2022/06/12 07:25:56;;;;;;;;;;;;;;;16.68;71.16;102268.19;5063550;28;19967;-61
2022/06/12 07:28:22;;;;;;;;;;;;;;;16.60;71.38;102260.13;5064604;28;19920;-62
2022/06/12 07:30:48;;;;;;;;;;;;;;;16.51;71.69;102265.50;5064761;28;20424;-62
2022/06/12 07:33:13;;;;;;;;;;;;;;;16.50;71.87;102271.84;5065139;28;19927;-62
2022/06/12 07:35:39;;;;;;;;;;;;;;;16.61;71.89;102272.50;5064868;28;19920;-62
2022/06/12 07:38:05;;;;;;;;;;;;;;;16.78;72.01;102258.13;5050414;28;19924;-62
2022/06/12 07:40:37;;;;;;;;;;;;;;;16.72;71.52;102269.50;5044893;28;19944;-62
2022/06/12 07:43:02;;;;;;;;;;;;;;;16.76;71.56;102270.00;5052337;28;19921;-61
2022/06/12 07:45:27;;;;;;;;;;;;;;;16.77;71.36;102272.53;5063716;28;19951;-62
2022/06/12 07:47:52;;;;;;;;;;;;;;;16.87;71.28;102266.16;5040356;28;20356;-62
2022/06/12 07:50:18;;;;;;;;;;;;;;;17.18;70.40;102273.53;5064389;28;19924;-62
2022/06/12 07:52:44;;;;;;;;;;;;;;;17.20;70.63;102266.97;5064794;28;19931;-61
2022/06/12 07:55:10;;;;;;;;;;;;;;;17.24;70.64;102267.47;5064556;28;19935;-63
2022/06/12 07:57:36;;;;;;;;;;;;;;;17.30;70.89;102264.13;5051506;28;19924;-62
2022/06/12 08:00:04;;;;;;;;;;;;;;;17.46;70.29;102265.91;5064162;28;19920;-62
2022/06/12 08:02:30;;;;;;;;;;;;;;;17.48;70.05;102273.78;5051782;28;20393;-62
2022/06/12 08:04:55;;;;;;;;;;;;;;;17.61;70.03;102263.34;5063959;28;19967;-62
2022/06/12 08:07:20;;;;;;;;;;;;;;;17.78;69.94;102268.63;5061790;28;19981;-63
2022/06/12 08:09:45;;;;;;;;;;;;;;;17.88;69.33;102263.88;5064077;28;19928;-62
2022/06/12 08:12:11;;;;;;;;;;;;;;;17.88;69.03;102271.94;5061983;28;19932;-62
2022/06/12 08:14:36;;;;;;;;;;;;;;;17.88;69.45;102263.88;5064092;28;20405;-62
2022/06/12 08:17:01;;;;;;;;;;;;;;;17.84;69.28;102273.31;5062691;28;19952;-62
2022/06/12 08:22:10;;;;;;;;;;;;;;;17.67;68.43;102266.34;5052884;28;19979;-62
2022/06/12 08:24:36;;;;;;;;;;;;;;;17.70;68.78;102265.97;5063707;28;19960;-62
2022/06/12 08:27:04;;;;;;;;;;;;;;;17.64;68.62;102258.63;5062599;28;22347;-62
2022/06/12 08:29:29;;;;;;;;;;;;;;;17.63;68.55;102259.63;5063253;28;20019;-62
2022/06/12 08:31:57;;;;;;;;;;;;;;;17.53;69.01;102266.06;5046116;28;19930;-63
2022/06/12 08:34:25;;;;;;;;;;;;;;;17.50;68.71;102268.25;5046423;28;19930;-62
2022/06/12 08:36:51;;;;;;;;;;;;;;;17.48;68.68;102274.59;5063739;28;20425;-62
2022/06/12 08:39:16;;;;;;;;;;;;;;;17.63;68.65;102259.63;5063346;28;19927;-62
2022/06/12 08:41:44;;;;;;;;;;;;;;;17.76;68.08;102262.59;5063370;28;20014;-62
2022/06/12 08:44:12;;;;;;;;;;;;;;;17.80;68.15;102261.25;5062304;28;19925;-62
2022/06/12 08:46:51;;;;;;;;;;;;;;;17.84;68.13;102261.72;5063173;28;19921;-63
2022/06/12 08:49:51;;;;;;;;;;;;;;;17.88;68.09;102269.25;5062553;28;20318;-62
2022/06/12 08:52:20;;;;;;;;;;;;;;;17.81;68.31;102252.19;5001918;28;19932;-62
2022/06/12 08:54:49;;;;;;;;;;;;;;;17.90;67.02;102254.84;5034129;28;19935;-62
2022/06/12 08:57:15;;;;;;;;;;;;;;;17.90;66.66;102249.47;5062717;28;19936;-62
2022/06/12 08:59:43;;;;;;;;;;;;;;;17.97;67.65;102245.06;5060498;28;19924;-63
2022/06/12 09:02:28;;;;;;;;;;;;;;;18.08;67.19;102252.75;5063263;28;19954;-62
2022/06/12 09:04:54;;;;;;;;;;;;;;;18.26;66.58;102238.22;5063133;28;19920;-62
2022/06/12 09:07:24;;;;;;;;;;;;;;;18.36;67.09;102244.16;5062403;28;20015;-62
2022/06/12 09:09:55;;;;;;;;;;;;;;;18.51;66.85;102240.69;5062986;28;19931;-62
2022/06/12 09:12:30;;;;;;;;;;;;;;;18.62;66.59;102232.22;5051047;28;19935;-62
2022/06/12 09:15:14;;;;;;;;;;;;;;;18.77;66.16;102234.09;5063588;28;20282;-62
2022/06/12 09:17:45;;;;;;;;;;;;;;;18.94;65.97;102238.28;5063407;28;20011;-62
2022/06/12 09:20:18;;;;;;;;;;;;;;;19.09;64.75;102237.50;5062668;28;19925;-62
2022/06/12 09:22:46;;;;;;;;;;;;;;;19.13;63.83;102238.81;5063587;28;19928;-62
2022/06/12 09:25:38;;;;;;;;;;;;;;;19.19;64.42;102238.06;5059765;28;20011;-63
2022/06/12 09:28:13;;;;;;;;;;;;;;;19.29;58.54;102234.28;5060296;28;19921;-62
2022/06/12 09:30:53;;;;;;;;;;;;;;;19.44;60.85;102245.84;5061902;28;19951;-62
2022/06/12 09:33:38;;;;;;;;;;;;;;;19.42;60.16;102236.28;5050634;28;20429;-62
2022/06/12 09:36:14;;;;;;;;;;;;;;;19.54;61.03;102239.34;5004701;28;19931;-62
2022/06/12 09:38:42;;;;;;;;;;;;;;;19.67;61.30;102236.81;5063600;28;19950;-62
2022/06/12 09:41:12;;;;;;;;;;;;;;;19.61;61.41;102235.72;5062662;28;19999;-62
2022/06/12 09:43:40;;;;;;;;;;;;;;;19.79;60.68;102237.19;5063400;28;19921;-62
2022/06/12 09:46:14;;;;;;;;;;;;;;;19.69;61.28;102236.63;5063193;28;19932;-61
2022/06/12 09:48:49;;;;;;;;;;;;;;;19.61;60.83;102240.28;5063478;28;20017;-62
2022/06/12 09:51:14;;;;;;;;;;;;;;;19.58;59.43;102240.63;5062643;28;19937;-62
2022/06/12 09:53:57;;;;;;;;;;;;;;;19.46;60.48;102249.19;5065993;28;19935;-62
2022/06/12 09:56:28;;;;;;;;;;;;;;;19.55;60.39;102235.63;5067556;28;19920;-63
2022/06/12 09:59:07;;;;;;;;;;;;;;;19.63;59.99;102232.84;5066968;28;20348;-63
2022/06/12 10:01:35;;;;;;;;;;;;;;;19.70;57.07;102236.47;5066235;28;19928;-62
2022/06/12 10:04:03;;;;;;;;;;;;;;;19.80;58.91;102240.69;5048969;28;19924;-62
2022/06/12 10:06:42;;;;;;;;;;;;;;;19.90;58.98;102238.53;5067133;28;20011;-62
2022/06/12 10:09:10;;;;;;;;;;;;;;;19.86;57.52;102232.72;5066964;28;19932;-62
2022/06/12 10:11:42;;;;;;;;;;;;;;;19.72;58.16;102229.03;5066705;28;19954;-61
2022/06/12 10:14:16;;;;;;;;;;;;;;;19.63;59.15;102222.06;5066166;28;19920;-63
2022/06/12 10:16:50;;;;;;;;;;;;;;;19.61;59.01;102224.13;5066979;28;19924;-62
2022/06/12 10:19:28;;;;;;;;;;;;;;;19.55;58.79;102219.50;5066041;28;19921;-62
2022/06/12 10:21:55;;;;;;;;;;;;;;;19.54;59.24;102217.84;5064493;28;19928;-62
2022/06/12 10:24:21;;;;;;;;;;;;;;;19.49;59.16;102221.91;5065491;28;19963;-63
2022/06/12 10:27:13;;;;;;;;;;;;;;;19.34;59.28;102223.78;5066702;28;19964;-63
2022/06/12 10:29:46;;;;;;;;;;;;;;;19.28;59.26;102219.97;5060563;28;20035;-62
2022/06/12 10:32:16;;;;;;;;;;;;;;;19.26;59.67;102215.81;5066729;28;19931;-62
2022/06/12 10:34:41;;;;;;;;;;;;;;;19.25;59.55;102214.16;5065628;28;20371;-62
2022/06/12 10:37:10;;;;;;;;;;;;;;;19.41;57.84;102208.56;5066882;28;19916;-62
2022/06/12 10:39:36;;;;;;;;;;;;;;;19.65;57.14;102214.66;5066474;28;19959;-62
2022/06/12 10:42:06;;;;;;;;;;;;;;;19.86;57.87;102210.31;5066388;28;20439;-62
2022/06/12 10:44:37;;;;;;;;;;;;;;;20.01;57.54;102213.84;5064730;28;19928;-63
2022/06/12 10:47:08;;;;;;;;;;;;;;;20.26;57.01;102205.38;5066818;28;19920;-62
2022/06/12 10:49:33;;;;;;;;;;;;;;;20.38;56.26;102207.56;5065100;28;19947;-62
2022/06/12 10:52:07;;;;;;;;;;;;;;;20.39;55.98;102211.91;5065850;28;20022;-63
2022/06/12 10:54:32;;;;;;;;;;;;;;;20.45;54.90;102207.59;5066180;28;19921;-62
2022/06/12 10:57:33;;;;;;;;;;;;;;;20.62;53.94;102208.16;5065908;28;20303;-62
2022/06/12 11:00:04;;;;;;;;;;;;;;;20.89;51.81;102202.97;4980999;28;19926;-62
2022/06/12 11:02:35;;;;;;;;;;;;;;;21.00;53.92;102197.03;5038934;28;19927;-63
2022/06/12 11:05:12;;;;;;;;;;;;;;;21.25;53.77;102195.72;5065561;28;19959;-62
2022/06/12 11:07:57;;;;;;;;;;;;;;;21.45;53.20;102201.19;5065890;28;19928;-62
2022/06/12 11:10:41;;;;;;;;;;;;;;;21.55;53.65;102196.25;5018832;28;20000;-62
2022/06/12 11:13:25;;;;;;;;;;;;;;;21.39;52.80;102202.00;5065459;28;19978;-63
2022/06/12 11:16:06;;;;;;;;;;;;;;;21.04;52.01;102190.22;5064931;28;20386;-62
2022/06/12 11:18:49;;;;;;;;;;;;;;;20.92;54.21;102205.28;5065825;28;19927;-63
2022/06/12 11:21:14;;;;;;;;;;;;;;;20.91;54.01;102192.81;5064793;28;20728;-62
2022/06/12 11:23:43;;;;;;;;;;;;;;;20.68;54.17;102200.13;5065631;28;19920;-62
2022/06/12 11:26:24;;;;;;;;;;;;;;;20.55;55.28;102195.47;5063992;28;19925;-62
2022/06/12 11:28:52;;;;;;;;;;;;;;;20.50;55.59;102189.84;5065193;28;19916;-62
2022/06/12 11:31:24;;;;;;;;;;;;;;;20.85;54.87;102190.91;5064315;28;19951;-63
2022/06/12 11:34:02;;;;;;;;;;;;;;;20.98;53.83;102191.03;5065277;28;19928;-63
2022/06/12 11:36:47;;;;;;;;;;;;;;;21.09;54.27;102181.53;5063535;28;19924;-62
2022/06/12 11:39:33;;;;;;;;;;;;;;;21.04;54.32;102184.84;5059654;28;19981;-63
2022/06/12 11:42:05;;;;;;;;;;;;;;;21.06;53.98;102190.84;5065415;28;19929;-62
2022/06/12 11:44:40;;;;;;;;;;;;;;;21.23;54.45;102182.44;5064992;28;20003;-62
2022/06/12 11:47:14;;;;;;;;;;;;;;;21.45;50.73;102168.81;5065157;28;20395;-62
2022/06/12 11:49:51;;;;;;;;;;;;;;;21.57;52.49;102167.19;5065517;28;19925;-62
2022/06/12 11:52:23;;;;;;;;;;;;;;;21.77;52.85;102163.75;5063264;28;20531;-62
2022/06/12 11:54:48;;;;;;;;;;;;;;;21.86;49.85;102162.50;5065559;28;19921;-62
2022/06/12 11:57:22;;;;;;;;;;;;;;;21.65;51.01;102158.06;5064660;28;20037;-62
2022/06/12 11:59:47;;;;;;;;;;;;;;;21.74;52.00;102166.84;5063170;28;19921;-62
2022/06/12 12:02:22;;;;;;;;;;;;;;;21.95;49.98;102167.72;5064148;28;20397;-63
2022/06/12 12:05:02;;;;;;;;;;;;;;;22.00;49.14;102165.25;5064358;28;19927;-63
2022/06/12 12:07:31;;;;;;;;;;;;;;;22.11;48.80;102166.50;5053525;28;20017;-62
2022/06/12 12:10:11;;;;;;;;;;;;;;;22.24;46.75;102162.94;5064997;28;20394;-62
2022/06/12 12:12:44;;;;;;;;;;;;;;;22.20;48.52;102159.84;5064091;28;19925;-62
2022/06/12 12:15:19;;;;;;;;;;;;;;;22.26;48.92;102160.91;5064179;28;20397;-62
2022/06/12 12:17:46;;;;;;;;;;;;;;;22.24;48.69;102149.44;5064594;28;19998;-63
2022/06/12 12:20:12;;;;;;;;;;;;;;;22.23;50.04;102151.34;5063860;28;20005;-62
2022/06/12 12:22:42;;;;;;;;;;;;;;;22.34;49.36;102159.88;5064500;28;19924;-63
2022/06/12 12:25:21;;;;;;;;;;;;;;;22.26;48.76;102155.50;5064377;28;19920;-63
2022/06/12 12:27:47;;;;;;;;;;;;;;;22.14;49.83;102156.09;5063990;28;19986;-62
2022/06/12 12:30:15;;;;;;;;;;;;;;;22.24;48.49;102149.44;5064632;28;19920;-62
2022/06/12 12:32:41;;;;;;;;;;;;;;;22.17;48.70;102144.88;5064164;28;19998;-62
2022/06/12 12:35:08;;;;;;;;;;;;;;;22.22;48.24;102151.53;5064244;28;19955;-62
2022/06/12 12:43:12;;;;;;;;;;;;;;;22.17;48.29;102146.75;5053558;28;19932;-62
2022/06/12 12:45:38;;;;;;;;;;;;;;;22.07;50.08;102152.59;5063632;28;19925;-62
2022/06/12 12:48:08;;;;;;;;;;;;;;;21.98;50.22;102143.84;5064171;28;19921;-63
2022/06/12 12:50:42;;;;;;;;;;;;;;;22.06;48.82;102148.22;5063342;28;19924;-62
2022/06/12 12:53:18;;;;;;;;;;;;;;;22.01;49.19;102145.31;5064162;28;19978;-62
2022/06/12 12:55:43;;;;;;;;;;;;;;;22.06;49.26;102142.81;5064328;28;19920;-61
2022/06/12 12:58:20;;;;;;;;;;;;;;;22.03;48.91;102140.53;5063912;28;19932;-62
2022/06/12 13:00:46;;;;;;;;;;;;;;;21.99;49.97;102136.56;5063175;28;19986;-63
2022/06/12 13:03:26;;;;;;;;;;;;;;;22.16;48.53;102137.00;5062539;28;20406;-62
2022/06/12 13:06:09;;;;;;;;;;;;;;;22.14;48.94;102136.34;5052164;28;19966;-62